Time;durP1;ratioP1;P1;durP2;ratioP2;P2;SDS_P1;SDS_P2;PMS_P1;PMS_P2;Temp;Humidity;BMP_temperature;BMP_pressure;BME280_temperature;BME280_humidity;BME280_pressure;Samples;Min_cycle;Max_cycle;Signal;HPM_P1;HPM_P2
2022/03/10 00:00:59;;;;;;;24.97;23.47;;;;;;;-141.02;100.00;55844.97;5135805;27;20249;-74
2022/03/10 00:03:27;;;;;;;24.77;23.07;;;;;;;-141.02;100.00;55844.97;5136065;27;20229;-73
2022/03/10 00:05:54;;;;;;;22.70;21.40;;;;;;;-141.02;100.00;55844.97;5135763;27;20193;-73
2022/03/10 00:08:21;;;;;;;23.60;22.30;;;;;;;-141.02;100.00;55844.97;5135332;27;20224;-74
2022/03/10 00:10:48;;;;;;;24.47;23.07;;;;;;;-141.02;100.00;55844.97;5135671;27;20280;-73
2022/03/10 00:13:16;;;;;;;24.10;22.33;;;;;;;-141.02;100.00;55844.97;5135252;27;20249;-73
2022/03/10 00:15:43;;;;;;;25.80;24.10;;;;;;;-141.02;100.00;55844.97;5135660;27;20192;-74
2022/03/10 00:18:10;;;;;;;25.90;24.20;;;;;;;-141.02;100.00;55844.97;5135205;27;20200;-74
2022/03/10 00:20:39;;;;;;;23.63;22.30;;;;;;;-141.02;100.00;55844.97;5135454;27;20189;-73
2022/03/10 00:23:05;;;;;;;23.70;22.30;;;;;;;-141.02;100.00;55844.97;5135455;27;20193;-73
2022/03/10 00:25:34;;;;;;;23.47;21.93;;;;;;;-141.02;100.00;55844.97;5135363;27;20228;-73
2022/03/10 00:28:01;;;;;;;23.57;22.17;;;;;;;-141.02;100.00;55844.97;5135317;27;20643;-73
2022/03/10 00:30:28;;;;;;;25.57;24.17;;;;;;;-141.02;100.00;55844.97;5134974;27;20188;-73
2022/03/10 00:32:55;;;;;;;24.23;22.83;;;;;;;-141.02;100.00;55844.97;5135216;27;20235;-73
2022/03/10 00:35:24;;;;;;;24.27;22.97;;;;;;;-141.02;100.00;55844.97;5135183;27;20196;-73
2022/03/10 00:37:53;;;;;;;25.87;24.17;;;;;;;-141.02;100.00;55844.97;5134642;27;20706;-73
2022/03/10 00:40:20;;;;;;;26.33;24.73;;;;;;;-141.02;100.00;55844.97;5135329;27;20200;-74
2022/03/10 00:42:47;;;;;;;25.30;23.80;;;;;;;-141.02;100.00;55844.97;5135017;27;20241;-73
2022/03/10 00:45:16;;;;;;;24.30;22.70;;;;;;;-141.02;100.00;55844.97;5135208;27;20196;-73
2022/03/10 00:47:43;;;;;;;27.40;25.30;;;;;;;-141.02;100.00;55844.97;5134570;27;20192;-73
2022/03/10 00:50:11;;;;;;;26.33;24.93;;;;;;;-141.02;100.00;55844.97;5135153;27;20259;-73
2022/03/10 00:52:41;;;;;;;25.93;24.10;;;;;;;-141.02;100.00;55844.97;5134800;27;20196;-73
2022/03/10 00:55:15;;;;;;;27.57;25.97;;;;;;;-141.02;100.00;55844.97;5134504;27;20192;-73
2022/03/10 00:57:42;;;;;;;25.43;23.93;;;;;;;-141.02;100.00;55844.97;5134494;27;20188;-73
2022/03/10 01:00:10;;;;;;;23.07;21.77;;;;;;;-141.02;100.00;55844.97;5134362;27;20222;-73
2022/03/10 01:02:38;;;;;;;23.90;22.60;;;;;;;-141.02;100.00;55844.97;5134537;27;20200;-73
2022/03/10 01:05:07;;;;;;;24.60;23.20;;;;;;;-141.02;100.00;55844.97;5134563;27;20230;-73
2022/03/10 01:07:34;;;;;;;25.40;23.90;;;;;;;-141.02;100.00;55844.97;5134553;27;20245;-73
2022/03/10 01:10:01;;;;;;;26.63;25.03;;;;;;;-141.02;100.00;55844.97;5134044;27;20256;-73
2022/03/10 01:12:30;;;;;;;23.77;22.37;;;;;;;-141.02;100.00;55844.97;5134104;27;20224;-73
2022/03/10 01:14:57;;;;;;;24.47;22.97;;;;;;;-141.02;100.00;55844.97;5134046;27;20283;-73
2022/03/10 01:17:24;;;;;;;23.57;22.17;;;;;;;-141.02;100.00;55844.97;5134313;27;20189;-73
2022/03/10 01:19:51;;;;;;;28.20;26.57;;;;;;;-141.02;100.00;55844.97;5134290;27;20224;-73
2022/03/10 01:22:18;;;;;;;25.20;23.80;;;;;;;-141.02;100.00;55844.97;5133959;27;20794;-73
2022/03/10 01:24:45;;;;;;;25.50;24.10;;;;;;;-141.02;100.00;55844.97;5133874;27;20582;-73
2022/03/10 01:27:12;;;;;;;24.73;23.43;;;;;;;-141.02;100.00;55844.97;5133615;27;20251;-73
2022/03/10 01:29:41;;;;;;;25.00;23.70;;;;;;;-141.02;100.00;55844.97;5133998;27;20281;-73
2022/03/10 01:32:09;;;;;;;26.60;25.20;;;;;;;-141.02;100.00;55844.97;5133793;27;20621;-73
2022/03/10 01:34:36;;;;;;;27.67;26.17;;;;;;;-141.02;100.00;55844.97;5134058;27;20197;-73
2022/03/10 01:37:03;;;;;;;26.40;24.90;;;;;;;-141.02;100.00;55844.97;5133575;27;20196;-73
2022/03/10 01:39:36;;;;;;;27.50;25.63;;;;;;;-141.02;100.00;55844.97;5133654;27;20242;-71
2022/03/10 01:42:06;;;;;;;22.97;21.57;;;;;;;-141.02;100.00;55844.97;5133863;27;20227;-72
2022/03/10 01:44:33;;;;;;;23.30;22.20;;;;;;;-141.02;100.00;55844.97;5134165;27;20196;-73
2022/03/10 01:47:02;;;;;;;24.67;23.17;;;;;;;-141.02;100.00;55844.97;5133690;27;20227;-73
2022/03/10 01:49:29;;;;;;;21.13;19.83;;;;;;;-141.02;100.00;55844.97;5133674;27;20311;-73
2022/03/10 01:51:56;;;;;;;25.67;24.37;;;;;;;-141.02;100.00;55844.97;5133382;27;20629;-72
2022/03/10 01:54:23;;;;;;;29.03;27.20;;;;;;;-141.02;100.00;55844.97;5133603;27;20730;-73
2022/03/10 01:56:51;;;;;;;24.50;22.97;;;;;;;-141.02;100.00;55844.97;5133813;27;20261;-73
2022/03/10 01:59:19;;;;;;;24.93;23.73;;;;;;;-141.02;100.00;55844.97;5133285;27;20283;-73
2022/03/10 02:01:46;;;;;;;25.70;24.40;;;;;;;-141.02;100.00;55844.97;5133282;27;20643;-70
2022/03/10 02:04:16;;;;;;;20.57;19.47;;;;;;;-141.02;100.00;55844.97;5133389;27;20555;-73
2022/03/10 02:06:43;;;;;;;26.10;24.43;;;;;;;-141.02;100.00;55844.97;5133779;27;20256;-73
2022/03/10 02:11:55;;;;;;;23.27;21.97;;;;;;;-141.02;100.00;55844.97;5133244;27;20199;-72
2022/03/10 02:17:21;;;;;;;23.73;22.43;;;;;;;-141.02;100.00;55844.97;5134044;27;20272;-73
2022/03/10 02:19:51;;;;;;;24.73;23.30;;;;;;;-141.02;100.00;55844.97;5133635;27;20195;-73
2022/03/10 02:22:21;;;;;;;25.50;23.90;;;;;;;-141.02;100.00;55844.97;5133197;27;20557;-73
2022/03/10 02:24:49;;;;;;;24.17;22.57;;;;;;;-141.02;100.00;55844.97;5132934;27;20193;-73
2022/03/10 02:27:19;;;;;;;22.60;21.20;;;;;;;-141.02;100.00;55844.97;5133177;28;20201;-73
2022/03/10 02:29:47;;;;;;;24.43;22.90;;;;;;;-141.02;100.00;55844.97;5133155;28;20277;-72
2022/03/10 02:32:15;;;;;;;25.77;24.30;;;;;;;-141.02;100.00;55844.97;5133201;28;20196;-72
2022/03/10 02:34:43;;;;;;;22.23;21.03;;;;;;;-141.02;100.00;55844.97;5132922;27;20253;-73
2022/03/10 02:37:11;;;;;;;22.27;20.97;;;;;;;-141.02;100.00;55844.97;5132731;28;20275;-73
2022/03/10 02:39:41;;;;;;;22.50;21.03;;;;;;;-141.02;100.00;55844.97;5135495;27;20231;-73
2022/03/10 02:42:09;;;;;;;23.07;21.57;;;;;;;-141.02;100.00;55844.97;5137679;27;20188;-73
2022/03/10 02:44:41;;;;;;;20.20;18.60;;;;;;;-141.02;100.00;55844.97;5137642;27;20245;-72
2022/03/10 02:47:08;;;;;;;20.87;19.30;;;;;;;-141.02;100.00;55844.97;5137046;27;20662;-72
2022/03/10 02:49:35;;;;;;;22.23;20.43;;;;;;;-141.02;100.00;55844.97;5137160;27;20312;-72
2022/03/10 02:52:03;;;;;;;23.07;21.67;;;;;;;-141.02;100.00;55844.97;5137255;27;20246;-72
2022/03/10 02:54:30;;;;;;;25.63;23.83;;;;;;;-141.02;100.00;55844.97;5136834;27;20644;-72
2022/03/10 02:56:59;;;;;;;25.47;23.87;;;;;;;-141.02;100.00;55844.97;5137057;27;20265;-73
2022/03/10 02:59:26;;;;;;;25.07;23.17;;;;;;;-141.02;100.00;55844.97;5137069;27;20192;-72
2022/03/10 03:01:55;;;;;;;25.23;23.23;;;;;;;-141.02;100.00;55844.97;5136980;27;20650;-72
2022/03/10 03:04:22;;;;;;;23.80;21.93;;;;;;;-141.02;100.00;55844.97;5136610;27;20196;-72
2022/03/10 03:06:49;;;;;;;21.77;20.27;;;;;;;-141.02;100.00;55844.97;5136664;27;20279;-72
2022/03/10 03:09:16;;;;;;;25.67;23.67;;;;;;;-141.02;100.00;55844.97;5136757;27;20316;-72
2022/03/10 03:11:44;;;;;;;24.23;22.43;;;;;;;-141.02;100.00;55844.97;5137026;27;20193;-70
2022/03/10 03:14:12;;;;;;;23.90;21.93;;;;;;;-141.02;100.00;55844.97;5136451;27;20727;-72
2022/03/10 03:16:39;;;;;;;32.47;30.07;;;;;;;-141.02;100.00;55844.97;5136383;27;20196;-71
2022/03/10 03:19:06;;;;;;;23.30;21.47;;;;;;;-141.02;100.00;55844.97;5137218;27;20193;-71
2022/03/10 03:21:33;;;;;;;21.63;20.17;;;;;;;-141.02;100.00;55844.97;5136315;27;20573;-71
2022/03/10 03:24:00;;;;;;;23.07;21.57;;;;;;;-141.02;100.00;55844.97;5136328;27;20737;-71
2022/03/10 03:26:28;;;;;;;21.73;20.13;;;;;;;-141.02;100.00;55844.97;5136424;27;20563;-72
2022/03/10 03:28:55;;;;;;;21.50;20.20;;;;;;;-141.02;100.00;55844.97;5136362;27;20228;-71
2022/03/10 03:31:23;;;;;;;25.50;23.57;;;;;;;-141.02;100.00;55844.97;5136268;27;20192;-72
2022/03/10 03:33:50;;;;;;;24.23;22.17;;;;;;;-141.02;100.00;55844.97;5136349;27;20249;-71
2022/03/10 03:36:17;;;;;;;20.90;19.43;;;;;;;-141.02;100.00;55844.97;5136390;27;20227;-71
2022/03/10 03:38:44;;;;;;;19.40;18.17;;;;;;;-141.02;100.00;55844.97;5135977;27;20232;-71
2022/03/10 03:41:12;;;;;;;21.60;20.13;;;;;;;-141.02;100.00;55844.97;5135908;27;20235;-71
2022/03/10 03:43:39;;;;;;;22.00;19.90;;;;;;;-141.02;100.00;55844.97;5135859;27;20735;-71
2022/03/10 03:46:06;;;;;;;21.40;19.97;;;;;;;-141.02;100.00;55844.97;5136118;27;20224;-71
2022/03/10 03:48:34;;;;;;;22.27;20.57;;;;;;;-141.02;100.00;55844.97;5136165;27;20220;-71
2022/03/10 03:51:01;;;;;;;25.03;23.03;;;;;;;-141.02;100.00;55844.97;5135440;27;20292;-71
2022/03/10 03:53:28;;;;;;;22.37;20.57;;;;;;;-141.02;100.00;55844.97;5136883;27;20188;-71
2022/03/10 03:55:55;;;;;;;23.10;21.60;;;;;;;-141.02;100.00;55844.97;5135978;27;20358;-71
2022/03/10 03:58:22;;;;;;;23.83;22.23;;;;;;;-141.02;100.00;55844.97;5136255;27;20789;-71
2022/03/10 04:00:49;;;;;;;25.70;23.77;;;;;;;-141.02;100.00;55844.97;5135877;27;20196;-71
2022/03/10 04:03:16;;;;;;;21.30;19.80;;;;;;;-141.02;100.00;55844.97;5135781;27;20751;-71
2022/03/10 04:05:44;;;;;;;20.87;19.17;;;;;;;-141.02;100.00;55844.97;5135476;27;20616;-71
2022/03/10 04:08:12;;;;;;;21.50;20.00;;;;;;;-141.02;100.00;55844.97;5135401;27;20280;-71
2022/03/10 04:10:40;;;;;;;21.37;19.83;;;;;;;-141.02;100.00;55844.97;5135333;27;20227;-71
2022/03/10 04:13:07;;;;;;;20.10;18.80;;;;;;;-141.02;100.00;55844.97;5135291;27;20200;-71
2022/03/10 04:15:34;;;;;;;23.80;21.90;;;;;;;-141.02;100.00;55844.97;5135509;27;20249;-71
2022/03/10 04:18:02;;;;;;;21.50;19.90;;;;;;;-141.02;100.00;55844.97;5135248;27;20328;-71
2022/03/10 04:20:29;;;;;;;26.70;24.23;;;;;;;-141.02;100.00;55844.97;5135980;27;20196;-71
2022/03/10 04:22:58;;;;;;;22.17;20.47;;;;;;;-141.02;100.00;55844.97;5135128;27;20192;-71
2022/03/10 04:25:25;;;;;;;36.87;34.07;;;;;;;-141.02;100.00;55844.97;5135021;27;20218;-71
2022/03/10 04:27:53;;;;;;;23.37;21.57;;;;;;;-141.02;100.00;55844.97;5135295;27;20195;-71
2022/03/10 04:30:22;;;;;;;34.87;32.23;;;;;;;-141.02;100.00;55844.97;5135185;27;20263;-71
2022/03/10 04:32:50;;;;;;;23.17;21.57;;;;;;;-141.02;100.00;55844.97;5134924;27;20612;-70
2022/03/10 04:35:19;;;;;;;27.00;25.47;;;;;;;-141.02;100.00;55844.97;5135188;27;20265;-71
2022/03/10 04:37:52;;;;;;;77.30;72.27;;;;;;;-141.02;100.00;55844.97;5134728;27;20644;-70
2022/03/10 04:40:21;;;;;;;26.67;24.77;;;;;;;-141.02;100.00;55844.97;5134825;27;20192;-71
2022/03/10 04:42:49;;;;;;;23.60;22.00;;;;;;;-141.02;100.00;55844.97;5134703;27;20192;-70
2022/03/10 04:45:16;;;;;;;66.83;62.47;;;;;;;-141.02;100.00;55844.97;5134995;27;20196;-71
2022/03/10 04:47:44;;;;;;;47.53;44.37;;;;;;;-141.02;100.00;55844.97;5134926;27;20275;-70
2022/03/10 04:50:12;;;;;;;83.97;78.47;;;;;;;-141.02;100.00;55844.97;5134836;27;20277;-71
2022/03/10 04:52:40;;;;;;;23.37;21.50;;;;;;;-141.02;100.00;55844.97;5134513;27;20682;-71
2022/03/10 04:55:08;;;;;;;25.10;23.57;;;;;;;-141.02;100.00;55844.97;5134544;27;20196;-71
2022/03/10 04:57:36;;;;;;;23.37;21.60;;;;;;;-141.02;100.00;55844.97;5134520;27;20662;-71
2022/03/10 05:00:08;;;;;;;34.70;32.50;;;;;;;-141.02;100.00;55844.97;5134365;27;20228;-70
2022/03/10 05:02:35;;;;;;;45.47;42.53;;;;;;;-141.02;100.00;55844.97;5133505;27;20603;-71
2022/03/10 05:05:03;;;;;;;44.50;41.77;;;;;;;-141.02;100.00;55844.97;5134307;27;20719;-70
2022/03/10 05:07:30;;;;;;;38.80;36.30;;;;;;;-141.02;100.00;55844.97;5134241;27;20279;-70
2022/03/10 05:09:58;;;;;;;21.17;19.67;;;;;;;-141.02;100.00;55844.97;5134443;27;20230;-71
2022/03/10 05:12:25;;;;;;;21.83;20.13;;;;;;;-141.02;100.00;55844.97;5134148;27;20199;-71
2022/03/10 05:14:53;;;;;;;22.13;20.47;;;;;;;-141.02;100.00;55844.97;5134113;27;20677;-71
2022/03/10 05:17:21;;;;;;;37.53;34.87;;;;;;;-141.02;100.00;55844.97;5134585;27;20224;-71
2022/03/10 05:19:48;;;;;;;23.97;22.17;;;;;;;-141.02;100.00;55844.97;5134391;27;20284;-71
2022/03/10 05:22:16;;;;;;;34.27;31.70;;;;;;;-141.02;100.00;55844.97;5133915;27;20279;-71
2022/03/10 05:24:43;;;;;;;20.20;18.80;;;;;;;-141.02;100.00;55844.97;5134232;27;20214;-71
2022/03/10 05:27:10;;;;;;;22.47;20.77;;;;;;;-141.02;100.00;55844.97;5134157;27;20245;-71
2022/03/10 05:29:40;;;;;;;22.57;21.03;;;;;;;-141.02;100.00;55844.97;5134009;27;20216;-71
2022/03/10 05:32:10;;;;;;;35.27;32.33;;;;;;;-141.02;100.00;55844.97;5133778;27;20231;-71
2022/03/10 05:34:38;;;;;;;21.27;19.87;;;;;;;-141.02;100.00;55844.97;5133657;27;20568;-71
2022/03/10 05:37:05;;;;;;;23.07;21.33;;;;;;;-141.02;100.00;55844.97;5133529;27;20193;-71
2022/03/10 05:39:32;;;;;;;22.23;20.73;;;;;;;-141.02;100.00;55844.97;5133616;27;20187;-71
2022/03/10 05:41:59;;;;;;;22.47;20.53;;;;;;;-141.02;100.00;55844.97;5133927;27;20196;-71
2022/03/10 05:44:26;;;;;;;21.23;20.10;;;;;;;-141.02;100.00;55844.97;5133567;27;20235;-71
2022/03/10 05:46:53;;;;;;;22.47;20.97;;;;;;;-141.02;100.00;55844.97;5133461;27;20193;-71
2022/03/10 05:49:22;;;;;;;28.60;26.77;;;;;;;-141.02;100.00;55844.97;5133376;27;20727;-71
2022/03/10 05:51:48;;;;;;;21.43;20.33;;;;;;;-141.02;100.00;55844.97;5133681;27;20224;-71
2022/03/10 05:54:15;;;;;;;22.60;21.40;;;;;;;-141.02;100.00;55844.97;5133380;27;20220;-71
2022/03/10 05:56:42;;;;;;;22.13;20.93;;;;;;;-141.02;100.00;55844.97;5133644;27;20199;-71
2022/03/10 05:59:09;;;;;;;23.23;21.67;;;;;;;-141.02;100.00;55844.97;5133638;27;20196;-71
2022/03/10 06:01:36;;;;;;;23.03;21.73;;;;;;;-141.02;100.00;55844.97;5133313;27;20288;-71
2022/03/10 06:04:04;;;;;;;22.17;20.97;;;;;;;-141.02;100.00;55844.97;5133546;27;20192;-71
2022/03/10 06:06:32;;;;;;;21.83;20.70;;;;;;;-141.02;100.00;55844.97;5133542;27;20280;-70
2022/03/10 06:08:59;;;;;;;24.80;23.50;;;;;;;-141.02;100.00;55844.97;5133476;27;20327;-71
2022/03/10 06:11:26;;;;;;;21.20;20.10;;;;;;;-141.02;100.00;55844.97;5133331;27;20259;-71
2022/03/10 06:13:53;;;;;;;20.37;19.17;;;;;;;-141.02;100.00;55844.97;5133212;27;20227;-71
2022/03/10 06:16:20;;;;;;;25.07;23.67;;;;;;;-141.02;100.00;55844.97;5133059;27;20222;-71
2022/03/10 06:18:47;;;;;;;24.00;22.37;;;;;;;-141.02;100.00;55844.97;5133417;27;20220;-71
2022/03/10 06:21:14;;;;;;;23.50;22.20;;;;;;;-141.02;100.00;55844.97;5133271;27;20276;-71
2022/03/10 06:23:42;;;;;;;25.30;23.93;;;;;;;-141.02;100.00;55844.97;5133050;27;20578;-71
2022/03/10 06:26:09;;;;;;;24.03;22.80;;;;;;;-141.02;100.00;55844.97;5133254;27;20751;-70
2022/03/10 06:28:36;;;;;;;23.73;22.53;;;;;;;-141.02;100.00;55844.97;5133305;28;20192;-71
2022/03/10 06:31:04;;;;;;;23.97;22.77;;;;;;;-141.02;100.00;55844.97;5132895;28;20317;-71
2022/03/10 06:33:31;;;;;;;29.77;27.93;;;;;;;-141.02;100.00;55844.97;5133125;28;20193;-71
2022/03/10 06:35:58;;;;;;;23.57;22.27;;;;;;;-141.02;100.00;55844.97;5132902;28;20279;-70
2022/03/10 06:38:25;;;;;;;30.03;28.43;;;;;;;-141.02;100.00;55844.97;5132876;28;20228;-71
2022/03/10 06:40:53;;;;;;;24.53;23.30;;;;;;;-141.02;100.00;55844.97;5133077;28;20192;-71
2022/03/10 06:43:20;;;;;;;24.07;22.77;;;;;;;-141.02;100.00;55844.97;5133105;28;20300;-71
2022/03/10 06:45:47;;;;;;;30.57;28.57;;;;;;;-141.02;100.00;55844.97;5133024;28;20196;-71
2022/03/10 06:48:14;;;;;;;25.40;23.63;;;;;;;-141.02;100.00;55844.97;5133098;28;20189;-71
2022/03/10 06:50:41;;;;;;;23.33;22.03;;;;;;;-141.02;100.00;55844.97;5132590;28;20258;-71
2022/03/10 06:53:08;;;;;;;25.37;23.67;;;;;;;-141.02;100.00;55844.97;5132742;27;20283;-71
2022/03/10 06:55:35;;;;;;;26.07;24.67;;;;;;;-141.02;100.00;55844.97;5133526;28;20223;-71
2022/03/10 06:58:04;;;;;;;25.27;23.87;;;;;;;-141.02;100.00;55844.97;5132846;28;20607;-72
2022/03/10 07:00:31;;;;;;;26.03;24.53;;;;;;;-141.02;100.00;55844.97;5132949;27;20197;-71
2022/03/10 07:02:58;;;;;;;25.73;24.33;;;;;;;-141.02;100.00;55844.97;5132578;28;20682;-71
2022/03/10 07:05:25;;;;;;;26.70;25.20;;;;;;;-141.02;100.00;55844.97;5132931;28;20220;-71
2022/03/10 07:07:52;;;;;;;24.60;23.20;;;;;;;-141.02;100.00;55844.97;5132595;28;20228;-71
2022/03/10 07:10:19;;;;;;;29.53;27.83;;;;;;;-141.02;100.00;55844.97;5132698;27;20254;-71
2022/03/10 07:12:46;;;;;;;26.47;24.87;;;;;;;-141.02;100.00;55844.97;5132510;28;20622;-71
2022/03/10 07:15:14;;;;;;;29.37;27.47;;;;;;;-141.02;100.00;55844.97;5132730;28;20241;-71
2022/03/10 07:17:42;;;;;;;28.93;27.20;;;;;;;-141.02;100.00;55844.97;5132780;27;20249;-71
2022/03/10 07:20:10;;;;;;;30.77;29.00;;;;;;;-141.02;100.00;55844.97;5132769;28;20640;-71
2022/03/10 07:22:37;;;;;;;31.73;29.77;;;;;;;-141.02;100.00;55844.97;5132425;28;20654;-71
2022/03/10 07:25:05;;;;;;;35.40;33.27;;;;;;;-141.02;100.00;55844.97;5133943;27;20249;-69
2022/03/10 07:27:32;;;;;;;30.03;28.30;;;;;;;-141.02;100.00;55844.97;5136163;27;20196;-71
2022/03/10 07:29:59;;;;;;;27.50;25.90;;;;;;;-141.02;100.00;55844.97;5136417;27;20250;-72
2022/03/10 07:32:28;;;;;;;27.40;25.70;;;;;;;-141.02;100.00;55844.97;5136429;27;20249;-72
2022/03/10 07:34:56;;;;;;;49.03;46.00;;;;;;;-141.02;100.00;55844.97;5136350;27;20236;-71
2022/03/10 07:37:23;;;;;;;29.30;27.50;;;;;;;-141.02;100.00;55844.97;5136065;27;20236;-71
2022/03/10 07:39:50;;;;;;;27.70;26.00;;;;;;;-141.02;100.00;55844.97;5136385;27;20335;-71
2022/03/10 07:42:17;;;;;;;28.23;26.53;;;;;;;-141.02;100.00;55844.97;5135963;27;20192;-71
2022/03/10 07:44:44;;;;;;;29.00;27.23;;;;;;;-141.02;100.00;55844.97;5136242;27;20247;-71
2022/03/10 07:47:11;;;;;;;33.80;31.47;;;;;;;-141.02;100.00;55844.97;5135875;27;20283;-70
2022/03/10 07:49:40;;;;;;;28.40;26.70;;;;;;;-141.02;100.00;55844.97;5135804;27;20279;-71
2022/03/10 07:52:07;;;;;;;32.00;30.00;;;;;;;-141.02;100.00;55844.97;5136041;27;20232;-70
2022/03/10 07:54:35;;;;;;;29.40;27.57;;;;;;;-141.02;100.00;55844.97;5136025;27;20200;-70
2022/03/10 07:57:02;;;;;;;29.30;27.60;;;;;;;-141.02;100.00;55844.97;5136020;27;20200;-71
2022/03/10 07:59:29;;;;;;;53.03;49.60;;;;;;;-141.02;100.00;55844.97;5136153;27;20285;-70
2022/03/10 08:01:56;;;;;;;29.87;27.83;;;;;;;-141.02;100.00;55844.97;5135972;27;20280;-70
2022/03/10 08:04:23;;;;;;;28.27;26.67;;;;;;;-141.02;100.00;55844.97;5135543;27;20231;-70
2022/03/10 08:06:52;;;;;;;24.87;23.27;;;;;;;-141.02;100.00;55844.97;5136069;27;20203;-71
2022/03/10 08:09:20;;;;;;;31.80;29.87;;;;;;;-141.02;100.00;55844.97;5135749;27;20200;-70
2022/03/10 08:11:47;;;;;;;29.47;27.47;;;;;;;-141.02;100.00;55844.97;5135865;27;20228;-71
2022/03/10 08:14:14;;;;;;;29.73;27.83;;;;;;;-141.02;100.00;55844.97;5135832;27;20230;-71
2022/03/10 08:16:41;;;;;;;25.90;24.37;;;;;;;-141.02;100.00;55844.97;5135584;27;20196;-71
2022/03/10 08:19:10;;;;;;;27.90;26.00;;;;;;;-141.02;100.00;55844.97;5135199;27;20277;-71
2022/03/10 08:21:37;;;;;;;28.37;26.57;;;;;;;-141.02;100.00;55844.97;5136333;27;20196;-71
2022/03/10 08:24:07;;;;;;;29.10;27.20;;;;;;;-141.02;100.00;55844.97;5135461;27;20228;-71
2022/03/10 08:26:34;;;;;;;28.73;26.83;;;;;;;-141.02;100.00;55844.97;5135928;27;20192;-72
2022/03/10 08:29:01;;;;;;;28.57;26.87;;;;;;;-141.02;100.00;55844.97;5135366;27;20214;-71
2022/03/10 08:31:28;;;;;;;28.60;26.90;;;;;;;-141.02;100.00;55844.97;5135198;27;20281;-71
2022/03/10 08:33:55;;;;;;;33.80;31.73;;;;;;;-141.02;100.00;55844.97;5135260;27;20203;-71
2022/03/10 08:36:22;;;;;;;28.80;26.90;;;;;;;-141.02;100.00;55844.97;5135133;27;20586;-71
2022/03/10 08:38:49;;;;;;;28.10;26.30;;;;;;;-141.02;100.00;55844.97;5134850;27;20228;-72
2022/03/10 08:41:17;;;;;;;26.43;24.93;;;;;;;-141.02;100.00;55844.97;5135105;27;20280;-71
2022/03/10 08:43:45;;;;;;;32.33;30.43;;;;;;;-141.02;100.00;55844.97;5135027;27;20279;-71
2022/03/10 08:46:12;;;;;;;28.53;26.73;;;;;;;-141.02;100.00;55844.97;5134818;27;20682;-72
2022/03/10 08:48:40;;;;;;;26.87;25.37;;;;;;;-141.02;100.00;55844.97;5134648;27;20196;-72
2022/03/10 08:51:07;;;;;;;26.80;25.30;;;;;;;-141.02;100.00;55844.97;5135380;27;20567;-72
2022/03/10 08:53:36;;;;;;;32.10;30.10;;;;;;;-141.02;100.00;55844.97;5134556;27;20654;-72
2022/03/10 08:56:03;;;;;;;26.23;24.67;;;;;;;-141.02;100.00;55844.97;5134728;27;20199;-72
2022/03/10 08:58:32;;;;;;;25.13;23.73;;;;;;;-141.02;100.00;55844.97;5134823;27;20192;-72
2022/03/10 09:00:59;;;;;;;28.73;27.03;;;;;;;-141.02;100.00;55844.97;5134447;27;20704;-71
2022/03/10 09:03:26;;;;;;;27.90;26.40;;;;;;;-141.02;100.00;55844.97;5134732;27;20230;-71
2022/03/10 09:05:53;;;;;;;28.43;26.73;;;;;;;-141.02;100.00;55844.97;5134330;27;20193;-72
2022/03/10 09:08:21;;;;;;;27.70;26.10;;;;;;;-141.02;100.00;55844.97;5134588;27;20200;-72
2022/03/10 09:10:48;;;;;;;32.77;30.80;;;;;;;-141.02;100.00;55844.97;5134450;27;20231;-72
2022/03/10 09:13:15;;;;;;;29.33;27.53;;;;;;;-141.02;100.00;55844.97;5134407;27;20193;-72
2022/03/10 09:15:45;;;;;;;28.00;26.40;;;;;;;-141.02;100.00;55844.97;5134080;27;20257;-73
2022/03/10 09:18:13;;;;;;;28.27;26.57;;;;;;;-141.02;100.00;55844.97;5134335;27;20241;-73
2022/03/10 09:20:40;;;;;;;27.50;25.83;;;;;;;-141.02;100.00;55844.97;5134330;27;20271;-73
2022/03/10 09:23:07;;;;;;;28.03;26.33;;;;;;;-141.02;100.00;55844.97;5134264;27;20576;-71
2022/03/10 09:25:35;;;;;;;20.87;19.67;;;;;;;-141.02;100.00;55844.97;5134007;27;20200;-73
2022/03/10 09:28:02;;;;;;;21.27;19.87;;;;;;;-141.02;100.00;55844.97;5134178;27;20203;-72
2022/03/10 09:30:29;;;;;;;23.43;21.80;;;;;;;-141.02;100.00;55844.97;5133859;27;20253;-71
2022/03/10 09:32:58;;;;;;;21.90;20.60;;;;;;;-141.02;100.00;55844.97;5134012;27;20280;-73
2022/03/10 09:35:26;;;;;;;23.77;22.17;;;;;;;-141.02;100.00;55844.97;5133612;27;20188;-72
2022/03/10 09:37:53;;;;;;;21.53;20.33;;;;;;;-141.02;100.00;55844.97;5133468;27;20712;-73
2022/03/10 09:40:20;;;;;;;21.00;19.70;;;;;;;-141.02;100.00;55844.97;5133975;27;20279;-73
2022/03/10 09:42:49;;;;;;;22.83;21.33;;;;;;;-141.02;100.00;55844.97;5133895;27;20192;-73
2022/03/10 09:45:19;;;;;;;22.23;20.93;;;;;;;-141.02;100.00;55844.97;5132896;27;20268;-71
2022/03/10 09:47:47;;;;;;;23.00;21.60;;;;;;;-141.02;100.00;55844.97;5133226;27;20220;-73
2022/03/10 09:50:18;;;;;;;21.70;20.30;;;;;;;-141.02;100.00;55844.97;5133454;27;20753;-73
2022/03/10 09:52:46;;;;;;;21.47;20.07;;;;;;;-141.02;100.00;55844.97;5133401;27;20212;-72
2022/03/10 09:55:16;;;;;;;27.17;24.97;;;;;;;-141.02;100.00;55844.97;5133692;27;20241;-73
2022/03/10 09:57:44;;;;;;;24.57;22.77;;;;;;;-141.02;100.00;55844.97;5133745;27;20246;-74
2022/03/10 10:00:14;;;;;;;24.73;22.93;;;;;;;-141.02;100.00;55844.97;5133472;27;20245;-73
2022/03/10 10:02:42;;;;;;;21.67;20.37;;;;;;;-141.02;100.00;55844.97;5133653;27;20248;-74
2022/03/10 10:05:27;;;;;;;23.20;21.60;;;;;;;-141.02;100.00;55844.97;5133531;27;20192;-74
2022/03/10 10:08:06;;;;;;;20.47;19.17;;;;;;;-141.02;100.00;55844.97;5133243;27;20266;-74
2022/03/10 10:10:34;;;;;;;21.20;19.80;;;;;;;-141.02;100.00;55844.97;5133207;27;20203;-74
2022/03/10 10:13:05;;;;;;;21.03;19.77;;;;;;;-141.02;100.00;55844.97;5133347;27;20228;-74
2022/03/10 10:15:43;;;;;;;21.00;19.80;;;;;;;-141.02;100.00;55844.97;5133453;27;20195;-74
2022/03/10 10:18:15;;;;;;;22.07;20.83;;;;;;;-141.02;100.00;55844.97;5133365;27;20257;-74
2022/03/10 10:20:49;;;;;;;21.53;20.33;;;;;;;-141.02;100.00;55844.97;5133112;27;20245;-74
2022/03/10 10:23:19;;;;;;;20.83;19.60;;;;;;;-141.02;100.00;55844.97;5133031;27;20618;-74
2022/03/10 10:25:53;;;;;;;20.40;19.20;;;;;;;-141.02;100.00;55844.97;5132984;27;20269;-74
2022/03/10 10:28:28;;;;;;;21.07;19.87;;;;;;;-141.02;100.00;55844.97;5133001;27;20711;-74
2022/03/10 10:30:58;;;;;;;20.33;19.13;;;;;;;-141.02;100.00;55844.97;5132854;28;20278;-74
2022/03/10 10:33:25;;;;;;;21.83;20.53;;;;;;;-141.02;100.00;55844.97;5132848;28;20196;-74
2022/03/10 10:36:12;;;;;;;21.40;20.00;;;;;;;-141.02;100.00;55844.97;5132878;27;20554;-74
2022/03/10 10:38:41;;;;;;;21.53;20.13;;;;;;;-141.02;100.00;55844.97;5132647;28;20588;-74
2022/03/10 10:41:22;;;;;;;22.00;20.70;;;;;;;-141.02;100.00;55844.97;5133188;27;20624;-74
2022/03/10 10:43:51;;;;;;;34.23;32.13;;;;;;;-141.02;100.00;55844.97;5133142;27;20207;-74
2022/03/10 10:46:37;;;;;;;26.93;25.20;;;;;;;-141.02;100.00;55844.97;5133168;27;20196;-74
2022/03/10 10:49:06;;;;;;;29.93;28.23;;;;;;;-141.02;100.00;55844.97;5133108;27;20184;-74
2022/03/10 10:51:39;;;;;;;24.07;22.67;;;;;;;-141.02;100.00;55844.97;5132657;28;20277;-74
2022/03/10 10:54:09;;;;;;;24.70;23.07;;;;;;;-141.02;100.00;55844.97;5132830;28;20188;-74
2022/03/10 10:56:45;;;;;;;29.93;28.33;;;;;;;-141.02;100.00;55844.97;5133046;28;20216;-75
2022/03/10 10:59:26;;;;;;;28.30;26.60;;;;;;;-141.02;100.00;55844.97;5133684;27;20249;-75
2022/03/10 11:02:07;;;;;;;21.13;19.93;;;;;;;-141.02;100.00;55844.97;5136860;27;20241;-75
2022/03/10 11:04:34;;;;;;;22.77;21.43;;;;;;;-141.02;100.00;55844.97;5137116;27;20267;-75